createdAt,value
2022-11-03T00:01:46.456Z,2.97
2022-11-03T00:04:32.422Z,2.63
2022-11-03T00:06:59.716Z,3.38
2022-11-03T00:09:29.750Z,3.30
2022-11-03T00:11:57.136Z,3.10
2022-11-03T00:14:24.388Z,3.28
2022-11-03T00:16:51.645Z,3.35
2022-11-03T00:19:18.886Z,2.67
2022-11-03T00:21:46.724Z,2.80
2022-11-03T00:24:14.342Z,2.40
2022-11-03T00:26:41.615Z,3.78
2022-11-03T00:29:10.059Z,2.80
2022-11-03T00:31:38.425Z,3.40
2022-11-03T00:34:07.282Z,2.50
2022-11-03T00:36:38.868Z,3.33
2022-11-03T00:39:06.541Z,3.15
2022-11-03T00:41:34.069Z,3.15
2022-11-03T00:44:01.600Z,2.90
2022-11-03T00:46:30.508Z,3.53
2022-11-03T00:48:57.895Z,3.47
2022-11-03T00:51:26.012Z,2.45
2022-11-03T00:53:54.220Z,2.90
2022-11-03T00:56:22.185Z,2.63
2022-11-03T00:58:52.555Z,3.50
2022-11-03T01:01:20.946Z,2.90
2022-11-03T01:04:08.195Z,3.15
2022-11-03T01:06:51.459Z,3.45
2022-11-03T01:09:18.719Z,2.83
2022-11-03T01:11:52.075Z,3.20
2022-11-03T01:14:19.599Z,3.25
2022-11-03T01:16:46.813Z,2.60
2022-11-03T01:19:14.136Z,2.55
2022-11-03T01:21:41.384Z,2.90
2022-11-03T01:24:08.761Z,3.22
2022-11-03T01:26:35.938Z,3.10
2022-11-03T01:29:03.300Z,3.08
2022-11-03T01:31:30.612Z,2.95
2022-11-03T01:33:58.299Z,2.25
2022-11-03T01:36:25.971Z,2.63
2022-11-03T01:38:54.950Z,2.70
2022-11-03T01:41:23.647Z,2.78
2022-11-03T01:44:11.258Z,3.15
2022-11-03T01:46:47.491Z,2.92
2022-11-03T01:49:17.640Z,3.25
2022-11-03T01:51:46.359Z,3.20
2022-11-03T01:54:16.003Z,2.78
2022-11-03T01:56:46.736Z,3.10
2022-11-03T01:59:15.908Z,3.28
2022-11-03T02:01:44.153Z,3.03
2022-11-03T02:04:13.963Z,3.20
2022-11-03T02:06:41.691Z,2.72
2022-11-03T02:09:09.840Z,3.05
2022-11-03T02:11:56.813Z,2.80
2022-11-03T02:14:24.097Z,2.92
2022-11-03T02:16:53.677Z,3.10
2022-11-03T02:19:20.950Z,2.50
2022-11-03T02:22:11.476Z,3.28
2022-11-03T02:24:54.169Z,2.92
2022-11-03T02:27:21.921Z,3.35
2022-11-03T02:29:51.708Z,2.72
2022-11-03T02:32:27.449Z,3.17
2022-11-03T02:35:12.058Z,2.70
2022-11-03T02:37:42.638Z,2.65
2022-11-03T02:40:13.682Z,3.42
2022-11-03T02:42:42.862Z,3.15
2022-11-03T02:45:13.360Z,2.50
2022-11-03T02:47:44.292Z,2.83
2022-11-03T02:50:11.761Z,3.10
2022-11-03T02:52:41.699Z,3.00
2022-11-03T02:55:09.064Z,2.95
2022-11-03T02:57:39.460Z,2.72
2022-11-03T03:00:07.717Z,3.13
2022-11-03T03:02:38.332Z,3.25
2022-11-03T03:05:08.862Z,2.60
2022-11-03T03:07:37.939Z,2.90
2022-11-03T03:10:14.271Z,3.08
2022-11-03T03:12:43.996Z,2.83
2022-11-03T03:15:11.251Z,3.03
2022-11-03T03:17:45.609Z,3.03
2022-11-03T03:20:15.369Z,2.40
2022-11-03T03:23:11.593Z,3.05
2022-11-03T03:25:42.168Z,2.75
2022-11-03T03:28:11.820Z,2.33
2022-11-03T03:30:39.921Z,2.50
2022-11-03T03:33:08.771Z,2.42
2022-11-03T03:35:37.698Z,2.85
2022-11-03T03:38:11.521Z,2.78
2022-11-03T03:40:40.845Z,2.50
2022-11-03T03:43:09.737Z,3.28
2022-11-03T03:45:37.726Z,2.63
2022-11-03T03:48:05.571Z,2.78
2022-11-03T03:50:34.861Z,2.97
2022-11-03T03:53:03.199Z,2.75
2022-11-03T03:55:37.989Z,2.85
2022-11-03T04:00:32.771Z,2.60
2022-11-03T04:03:00.689Z,2.55
2022-11-03T04:05:28.127Z,3.20
2022-11-03T04:07:55.511Z,2.80
2022-11-03T04:10:23.635Z,2.45
2022-11-03T04:13:09.844Z,2.95
2022-11-03T04:15:52.740Z,2.95
2022-11-03T04:18:39.451Z,2.40
2022-11-03T04:21:26.062Z,2.58
2022-11-03T04:23:54.573Z,2.85
2022-11-03T04:26:25.544Z,2.63
2022-11-03T04:28:54.088Z,3.03
2022-11-03T04:31:24.522Z,2.42
2022-11-03T04:33:51.968Z,2.67
2022-11-03T04:36:20.613Z,2.75
2022-11-03T04:38:48.639Z,2.65
2022-11-03T04:41:17.701Z,3.10
2022-11-03T04:43:46.622Z,2.88
2022-11-03T04:46:16.186Z,2.42
2022-11-03T04:48:44.395Z,2.72
2022-11-03T04:51:16.429Z,2.60
2022-11-03T04:53:46.988Z,2.63
2022-11-03T04:56:15.841Z,2.95
2022-11-03T04:58:43.203Z,2.45
2022-11-03T05:01:13.144Z,2.80
2022-11-03T05:03:41.627Z,2.63
2022-11-03T05:06:28.310Z,2.53
2022-11-03T05:09:16.902Z,2.70
2022-11-03T05:11:45.685Z,2.45
2022-11-03T05:14:21.329Z,2.95
2022-11-03T05:16:49.773Z,2.92
2022-11-03T05:19:43.335Z,2.58
2022-11-03T05:22:17.773Z,3.03
2022-11-03T05:24:45.334Z,2.78
2022-11-03T05:27:20.260Z,2.72
2022-11-03T05:29:48.281Z,2.45
2022-11-03T05:32:16.886Z,2.70
2022-11-03T05:34:47.383Z,2.97
2022-11-03T05:37:26.171Z,2.33
2022-11-03T05:40:20.441Z,2.50
2022-11-03T05:42:50.178Z,2.45
2022-11-03T05:45:20.507Z,2.20
2022-11-03T05:47:48.474Z,2.75
2022-11-03T05:50:22.734Z,2.85
2022-11-03T05:52:52.089Z,3.05
2022-11-03T05:55:27.113Z,3.28
2022-11-03T05:57:56.696Z,2.97
2022-11-03T06:00:32.501Z,2.80
2022-11-03T06:03:00.416Z,2.22
2022-11-03T06:05:27.929Z,2.60
2022-11-03T06:07:56.259Z,2.55
2022-11-03T06:10:23.570Z,2.72
2022-11-03T06:12:50.863Z,2.92
2022-11-03T06:15:36.435Z,3.05
2022-11-03T06:18:14.203Z,2.72
2022-11-03T06:20:41.912Z,2.38
2022-11-03T06:23:12.847Z,2.95
2022-11-03T06:25:43.364Z,2.80
2022-11-03T06:28:21.721Z,2.35
2022-11-03T06:30:51.299Z,2.40
2022-11-03T06:33:24.466Z,2.45
2022-11-03T06:35:52.665Z,2.70
2022-11-03T06:38:20.818Z,2.28
2022-11-03T06:40:50.009Z,2.60
2022-11-03T06:43:21.519Z,2.13
2022-11-03T06:45:59.050Z,2.00
2022-11-03T06:48:27.725Z,2.22
2022-11-03T06:50:55.630Z,2.28
2022-11-03T06:53:27.414Z,2.70
2022-11-03T06:55:55.098Z,2.50
2022-11-03T06:58:27.923Z,2.30
2022-11-03T07:01:02.630Z,3.10
2022-11-03T07:03:35.142Z,1.80
2022-11-03T07:06:11.266Z,2.28
2022-11-03T07:08:40.594Z,3.05
2022-11-03T07:11:12.943Z,2.53
2022-11-03T07:13:40.353Z,2.17
2022-11-03T07:16:18.856Z,3.33
2022-11-03T07:18:47.869Z,2.65
2022-11-03T07:21:35.821Z,3.03
2022-11-03T07:24:05.782Z,1.85
2022-11-03T07:26:34.603Z,2.80
2022-11-03T07:29:02.122Z,2.83
2022-11-03T07:31:29.656Z,3.13
2022-11-03T07:34:00.102Z,2.67
2022-11-03T07:36:29.667Z,2.55
2022-11-03T07:38:57.651Z,2.30
2022-11-03T07:41:31.156Z,2.47
2022-11-03T07:44:02.034Z,2.58
2022-11-03T07:46:29.427Z,2.85
2022-11-03T07:49:02.033Z,2.25
2022-11-03T07:51:33.797Z,2.45
2022-11-03T07:54:10.500Z,2.63
2022-11-03T07:56:42.786Z,3.08
2022-11-03T07:59:11.430Z,2.33
2022-11-03T08:01:41.106Z,2.97
2022-11-03T08:04:10.985Z,2.60
2022-11-03T08:06:38.185Z,3.17
2022-11-03T08:09:06.095Z,2.58
2022-11-03T08:11:33.417Z,2.58
2022-11-03T08:14:00.822Z,2.83
2022-11-03T08:16:28.039Z,2.67
2022-11-03T08:18:55.365Z,1.95
2022-11-03T08:21:22.693Z,2.22
2022-11-03T08:23:50.097Z,2.67
2022-11-03T08:26:17.581Z,2.33
2022-11-03T08:28:45.562Z,2.75
2022-11-03T08:31:13.432Z,2.45
2022-11-03T08:33:41.259Z,3.10
2022-11-03T08:36:09.529Z,2.55
2022-11-03T08:38:36.908Z,2.30
2022-11-03T08:41:04.462Z,2.50
2022-11-03T08:43:31.818Z,2.92
2022-11-03T08:46:08.161Z,3.00
2022-11-03T08:48:40.291Z,2.40
2022-11-03T08:51:10.323Z,2.63
2022-11-03T08:53:38.534Z,3.25
2022-11-03T08:56:10.304Z,2.42
2022-11-03T08:58:40.033Z,2.25
2022-11-03T09:01:08.052Z,3.00
2022-11-03T09:03:35.593Z,2.83
2022-11-03T09:06:02.887Z,3.38
2022-11-03T09:11:17.843Z,3.13
2022-11-03T09:13:45.027Z,2.67
2022-11-03T09:16:12.308Z,3.00
2022-11-03T09:18:39.537Z,3.00
2022-11-03T09:21:07.505Z,2.58
2022-11-03T09:23:34.681Z,2.65
2022-11-03T09:26:01.945Z,2.88
2022-11-03T09:28:29.525Z,2.72
2022-11-03T09:30:56.910Z,2.92
2022-11-03T09:33:24.152Z,4.20
2022-11-03T09:35:51.689Z,2.85
2022-11-03T09:38:19.102Z,2.85
2022-11-03T09:40:46.432Z,3.00
2022-11-03T09:43:13.716Z,2.65
2022-11-03T09:45:41.036Z,2.67
2022-11-03T09:48:11.046Z,3.08
2022-11-03T09:50:38.429Z,3.03
2022-11-03T09:53:06.136Z,2.15
2022-11-03T09:55:34.916Z,2.75
2022-11-03T09:58:04.145Z,2.65
2022-11-03T10:00:31.600Z,2.28
2022-11-03T10:02:58.811Z,2.40
2022-11-03T10:05:27.368Z,2.60
2022-11-03T10:07:58.374Z,3.35
2022-11-03T10:10:26.143Z,3.53
2022-11-03T10:12:53.609Z,2.35
2022-11-03T10:15:22.653Z,2.60
2022-11-03T10:17:50.749Z,2.20
2022-11-03T10:20:20.211Z,2.70
2022-11-03T10:22:49.016Z,3.08
2022-11-03T10:25:28.426Z,3.05
2022-11-03T10:28:14.599Z,2.20
2022-11-03T10:31:11.409Z,2.40
2022-11-03T10:33:40.956Z,2.28
2022-11-03T10:36:08.490Z,3.03
2022-11-03T10:38:36.617Z,2.30
2022-11-03T10:41:10.996Z,2.20
2022-11-03T10:43:39.138Z,2.40
2022-11-03T10:46:29.704Z,2.17
2022-11-03T10:51:35.436Z,2.90
2022-11-03T10:54:03.637Z,2.72
2022-11-03T10:56:31.293Z,2.38
2022-11-03T11:01:32.379Z,2.50
2022-11-03T11:03:59.741Z,2.40
2022-11-03T11:06:28.748Z,2.50
2022-11-03T11:09:00.908Z,2.50
2022-11-03T11:11:28.698Z,2.47
2022-11-03T11:14:14.591Z,2.05
2022-11-03T11:16:51.532Z,2.42
2022-11-03T11:19:19.068Z,2.80
2022-11-03T11:21:47.744Z,2.75
2022-11-03T11:24:15.195Z,2.55
2022-11-03T11:26:42.458Z,2.15
2022-11-03T11:29:09.956Z,2.30
2022-11-03T11:31:37.942Z,2.20
2022-11-03T11:34:17.251Z,2.30
2022-11-03T11:37:10.961Z,1.98
2022-11-03T11:39:41.239Z,2.47
2022-11-03T11:42:17.421Z,2.08
2022-11-03T11:45:00.181Z,2.90
2022-11-03T11:47:35.196Z,2.40
2022-11-03T11:50:11.599Z,2.45
2022-11-03T11:52:51.895Z,2.15
2022-11-03T11:55:20.998Z,2.63
2022-11-03T11:57:48.365Z,2.67
2022-11-03T12:00:22.874Z,2.40
2022-11-03T12:02:50.280Z,2.70
2022-11-03T12:05:21.666Z,2.10
2022-11-03T12:07:50.365Z,2.58
2022-11-03T12:10:22.627Z,2.28
2022-11-03T12:12:50.069Z,2.22
2022-11-03T12:16:08.344Z,2.78
2022-11-03T12:18:42.553Z,2.53
2022-11-03T12:21:32.303Z,2.10
2022-11-03T12:24:36.374Z,2.30
2022-11-03T12:27:17.969Z,2.35
2022-11-03T12:29:44.807Z,2.35
2022-11-03T12:32:25.846Z,2.33
2022-11-03T12:34:59.568Z,2.05
2022-11-03T12:37:26.397Z,2.20
2022-11-03T12:39:53.301Z,2.25
2022-11-03T12:42:21.141Z,2.08
2022-11-03T12:44:48.034Z,2.75
2022-11-03T12:47:14.850Z,2.10
2022-11-03T12:49:41.719Z,2.17
2022-11-03T12:52:09.577Z,1.90
2022-11-03T12:54:36.514Z,2.20
2022-11-03T12:57:03.457Z,2.67
2022-11-03T12:59:30.400Z,2.42
2022-11-03T13:01:57.427Z,2.20
2022-11-03T13:04:24.428Z,2.28
2022-11-03T13:06:51.254Z,2.13
2022-11-03T13:09:18.297Z,2.10
2022-11-03T13:12:03.735Z,2.47
2022-11-03T13:14:30.639Z,2.28
2022-11-03T13:16:57.523Z,1.90
2022-11-03T13:19:24.438Z,2.45
2022-11-03T13:21:51.874Z,2.08
2022-11-03T13:24:19.199Z,1.92
2022-11-03T13:26:46.009Z,2.00
2022-11-03T13:29:13.157Z,2.35
2022-11-03T13:31:40.066Z,2.60
2022-11-03T13:34:06.875Z,2.00
2022-11-03T13:36:33.888Z,2.10
2022-11-03T13:39:00.888Z,2.10
2022-11-03T13:41:27.836Z,2.15
2022-11-03T13:43:54.673Z,2.08
2022-11-03T13:46:21.457Z,2.00
2022-11-03T13:51:35.206Z,2.22
2022-11-03T13:59:35.735Z,2.63
2022-11-03T14:04:50.698Z,2.30
2022-11-03T14:07:17.487Z,2.00
2022-11-03T14:09:44.335Z,2.03
2022-11-03T14:12:29.935Z,2.05
2022-11-03T14:15:00.919Z,2.17
2022-11-03T14:17:28.279Z,2.75
2022-11-03T14:20:00.744Z,2.47
2022-11-03T14:22:31.011Z,2.15
2022-11-03T14:24:57.911Z,2.22
2022-11-03T14:27:25.408Z,2.30
2022-11-03T14:29:52.968Z,1.98
2022-11-03T14:32:20.082Z,1.83
2022-11-03T14:34:47.998Z,1.80
2022-11-03T14:37:16.084Z,2.70
2022-11-03T14:39:42.998Z,2.60
2022-11-03T14:42:17.116Z,1.88
2022-11-03T14:44:46.750Z,1.95
2022-11-03T14:47:17.737Z,2.38
2022-11-03T14:49:45.931Z,2.50
2022-11-03T14:52:13.326Z,2.45
2022-11-03T14:54:40.418Z,2.22
2022-11-03T14:57:07.649Z,1.75
2022-11-03T14:59:35.078Z,1.95
2022-11-03T15:02:02.432Z,2.55
2022-11-03T15:04:29.794Z,2.00
2022-11-03T15:06:56.582Z,2.30
2022-11-03T15:09:23.436Z,1.85
2022-11-03T15:11:50.290Z,2.10
2022-11-03T15:14:17.620Z,2.20
2022-11-03T15:16:46.212Z,1.92
2022-11-03T15:19:13.761Z,2.00
2022-11-03T15:21:41.108Z,1.90
2022-11-03T15:26:55.814Z,2.20
2022-11-03T15:29:24.084Z,2.28
2022-11-03T15:31:51.784Z,2.40
2022-11-03T15:34:20.098Z,2.55
2022-11-03T15:36:47.328Z,2.60
2022-11-03T15:39:14.783Z,2.10
2022-11-03T15:41:42.415Z,2.55
2022-11-03T15:44:10.036Z,2.40
2022-11-03T15:46:37.393Z,2.55
2022-11-03T15:49:04.959Z,2.70
2022-11-03T15:51:32.301Z,2.97
2022-11-03T15:53:59.625Z,3.08
2022-11-03T15:56:27.480Z,3.08
2022-11-03T15:58:54.996Z,3.10
2022-11-03T16:01:22.661Z,1.98
2022-11-03T16:03:50.394Z,2.53
2022-11-03T16:06:17.682Z,3.05
2022-11-03T16:08:45.131Z,2.65
2022-11-03T16:11:12.671Z,2.33
2022-11-03T16:13:40.008Z,2.40
2022-11-03T16:16:07.374Z,3.20
2022-11-03T16:18:34.951Z,2.70
2022-11-03T16:21:02.441Z,3.28
2022-11-03T16:23:29.686Z,3.58
2022-11-03T16:25:57.425Z,4.20
2022-11-03T16:28:24.786Z,5.18
2022-11-03T16:30:54.581Z,3.00
2022-11-03T16:33:22.422Z,2.65
2022-11-03T16:35:49.759Z,2.72
2022-11-03T16:38:17.374Z,2.63
2022-11-03T16:40:44.890Z,2.78
2022-11-03T16:43:12.201Z,2.90
2022-11-03T16:45:39.435Z,3.38
2022-11-03T16:48:07.401Z,3.35
2022-11-03T16:50:35.378Z,2.80
2022-11-03T16:53:03.349Z,2.90
2022-11-03T16:55:30.733Z,3.15
2022-11-03T16:57:58.139Z,3.10
2022-11-03T17:00:26.149Z,3.00
2022-11-03T17:02:53.576Z,2.67
2022-11-03T17:05:21.653Z,2.72
2022-11-03T17:07:53.983Z,3.22
2022-11-03T17:10:22.093Z,3.35
2022-11-03T17:12:49.504Z,3.05
2022-11-03T17:15:19.779Z,2.80
2022-11-03T17:17:47.479Z,3.15
2022-11-03T17:20:15.195Z,3.10
2022-11-03T17:22:42.523Z,2.88
2022-11-03T17:25:10.740Z,4.10
2022-11-03T17:27:46.798Z,3.40
2022-11-03T17:30:17.935Z,3.80
2022-11-03T17:32:45.274Z,3.30
2022-11-03T17:35:22.328Z,3.10
2022-11-03T17:37:53.033Z,3.75
2022-11-03T17:40:21.789Z,3.10
2022-11-03T17:42:49.809Z,3.78
2022-11-03T17:45:18.562Z,2.83
2022-11-03T17:47:46.109Z,2.92
2022-11-03T17:50:17.031Z,2.60
2022-11-03T17:52:48.469Z,2.92
2022-11-03T17:55:47.200Z,2.50
2022-11-03T18:00:49.567Z,2.58
2022-11-03T18:03:16.921Z,2.10
2022-11-03T18:05:44.487Z,2.28
2022-11-03T18:08:12.597Z,3.75
2022-11-03T18:10:47.168Z,3.78
2022-11-03T18:13:19.975Z,2.03
2022-11-03T18:15:47.531Z,2.03
2022-11-03T18:18:19.991Z,1.85
2022-11-03T18:20:53.363Z,1.63
2022-11-03T18:23:22.697Z,1.63
2022-11-03T18:25:50.656Z,0.90
2022-11-03T18:28:18.238Z,1.00
2022-11-03T18:30:47.246Z,1.10
2022-11-03T18:33:23.207Z,1.23
2022-11-03T18:35:51.168Z,1.15
2022-11-03T18:38:18.613Z,1.20
2022-11-03T18:40:46.105Z,1.50
2022-11-03T18:43:17.792Z,1.17
2022-11-03T18:45:45.434Z,1.00
2022-11-03T18:48:19.211Z,1.30
2022-11-03T18:50:50.748Z,1.40
2022-11-03T18:53:19.265Z,1.05
2022-11-03T18:55:46.598Z,1.15
2022-11-03T18:58:18.258Z,1.17
2022-11-03T19:00:46.265Z,1.10
2022-11-03T19:03:15.476Z,0.80
2022-11-03T19:05:43.845Z,1.45
2022-11-03T19:08:22.769Z,1.20
2022-11-03T19:10:50.589Z,6.47
2022-11-03T19:13:22.454Z,1.02
2022-11-03T19:15:49.919Z,1.65
2022-11-03T19:18:17.139Z,1.55
2022-11-03T19:20:44.455Z,0.90
2022-11-03T19:23:22.304Z,1.10
2022-11-03T19:25:49.928Z,1.92
2022-11-03T19:28:25.356Z,0.80
2022-11-03T19:30:56.942Z,1.05
2022-11-03T19:33:26.031Z,0.98
2022-11-03T19:35:53.286Z,1.50
2022-11-03T19:38:20.653Z,1.10
2022-11-03T19:41:06.772Z,0.80
2022-11-03T19:43:35.273Z,0.95
2022-11-03T19:46:03.054Z,1.23
2022-11-03T19:48:32.460Z,1.42
2022-11-03T19:50:59.969Z,0.90
2022-11-03T19:53:28.663Z,1.00
2022-11-03T19:55:56.534Z,1.00
2022-11-03T19:58:27.990Z,0.68
2022-11-03T20:00:56.560Z,0.70
2022-11-03T20:03:24.349Z,0.77
2022-11-03T20:05:55.780Z,0.95
2022-11-03T20:08:24.400Z,0.90
2022-11-03T20:10:51.800Z,1.40
2022-11-03T20:13:21.367Z,0.88
2022-11-03T20:16:00.778Z,0.80
2022-11-03T20:18:28.895Z,1.15
2022-11-03T20:20:56.112Z,0.80
2022-11-03T20:23:27.579Z,1.23
2022-11-03T20:25:55.572Z,0.80
2022-11-03T20:28:28.364Z,0.88
2022-11-03T20:30:56.306Z,1.00
2022-11-03T20:33:24.531Z,0.98
2022-11-03T20:35:56.517Z,0.90
2022-11-03T20:38:27.936Z,0.90
2022-11-03T20:40:59.660Z,1.10
2022-11-03T20:43:41.134Z,0.90
2022-11-03T20:46:20.954Z,0.90
2022-11-03T20:48:48.346Z,1.20
2022-11-03T20:51:16.432Z,1.00
2022-11-03T20:53:44.225Z,1.00
2022-11-03T20:56:19.435Z,1.00
2022-11-03T20:58:47.601Z,0.77
2022-11-03T21:01:16.472Z,1.00
2022-11-03T21:03:58.824Z,1.00
2022-11-03T21:06:27.598Z,1.00
2022-11-03T21:08:55.213Z,0.80
2022-11-03T21:11:31.000Z,0.80
2022-11-03T21:14:00.142Z,0.70
2022-11-03T21:16:47.355Z,0.73
2022-11-03T21:19:35.205Z,1.10
2022-11-03T21:22:02.806Z,0.70
2022-11-03T21:24:33.354Z,0.90
2022-11-03T21:27:00.754Z,1.38
2022-11-03T21:29:53.490Z,0.90
2022-11-03T21:32:16.456Z,0.90
2022-11-03T21:34:44.544Z,0.82
2022-11-03T21:37:16.290Z,0.90
2022-11-03T21:39:44.110Z,1.10
2022-11-03T21:42:31.952Z,1.15
2022-11-03T21:44:59.967Z,1.40
2022-11-03T21:47:28.244Z,3.13
2022-11-03T21:49:55.627Z,5.93
2022-11-03T21:52:32.418Z,4.00
2022-11-03T21:55:00.479Z,2.10
2022-11-03T21:57:27.864Z,1.70
2022-11-03T21:59:58.969Z,2.10
2022-11-03T22:02:27.080Z,2.10
2022-11-03T22:04:55.458Z,2.50
2022-11-03T22:07:22.999Z,1.90
2022-11-03T22:09:50.318Z,2.35
2022-11-03T22:12:17.873Z,1.30
2022-11-03T22:15:03.773Z,1.20
2022-11-03T22:17:31.048Z,0.95
2022-11-03T22:20:17.174Z,0.98
2022-11-03T22:23:03.408Z,1.30
2022-11-03T22:25:49.557Z,0.82
2022-11-03T22:28:17.135Z,1.20
2022-11-03T22:31:03.070Z,0.90
2022-11-03T22:33:30.335Z,1.85
2022-11-03T22:36:21.586Z,2.75
2022-11-03T22:39:08.473Z,3.65
2022-11-03T22:41:54.680Z,3.28
2022-11-03T22:44:40.562Z,3.53
2022-11-03T22:47:08.563Z,3.63
2022-11-03T22:49:36.659Z,3.70
2022-11-03T22:52:04.219Z,4.05
2022-11-03T22:54:31.398Z,3.67
2022-11-03T22:56:58.682Z,3.08
2022-11-03T22:59:25.900Z,3.50
2022-11-03T23:01:54.110Z,4.00
2022-11-03T23:04:21.564Z,3.55
2022-11-03T23:06:48.844Z,3.33
2022-11-03T23:09:16.160Z,3.75
2022-11-03T23:11:43.511Z,3.78
2022-11-03T23:14:11.495Z,3.90
2022-11-03T23:16:40.795Z,3.15
2022-11-03T23:19:27.518Z,3.00
2022-11-03T23:21:54.954Z,2.97
2022-11-03T23:24:45.059Z,3.13
2022-11-03T23:27:13.571Z,3.20
2022-11-03T23:29:41.203Z,2.40
2022-11-03T23:32:08.462Z,2.60
2022-11-03T23:34:35.692Z,2.22
2022-11-03T23:37:03.410Z,2.42
2022-11-03T23:39:30.812Z,2.40
2022-11-03T23:41:58.163Z,2.25
2022-11-03T23:44:25.394Z,3.03
2022-11-03T23:47:11.609Z,2.58
2022-11-03T23:49:39.109Z,2.10
2022-11-03T23:52:06.302Z,2.00
2022-11-03T23:54:33.586Z,2.60
2022-11-03T23:57:19.812Z,2.33
2022-11-03T23:59:47.200Z,2.17
